Delta Virtual Airport Information Service

St. Louis Lambert International Airport

ICAO: KSTL Country: United States
Latitude: 38.7487 Longitude: -90.37
Latest Arrival : SWA105 (1B) (KSAN-KSTL) Latest Departure : DAL1089 (1B) (KSTL-KDTW)


WX CaptureLIVE
Data provided by noaa.gov | Fetched at 14:23:45

METAR : KSTL 151851Z 29005KT 10SM BKN036 BKN250 32/21 A2997 RMK AO2 SLP136 T03220206

TAF : KSTL 151900Z 1519/1624 29004KT P6SM BKN040 FM152100 34007KT P6SM VCTS SCT035CB BKN060 FM152300 34006KT P6SM SCT030 FM160300 35005KT P6SM SKC


Runway Data for KSTL
Data provided by openaviationdata.com

Runway ID Mag Var Hdg Length Elevation Surface ILS Freq ILS Id ILS Slope
6 0 62° 7595 ft 552 ft Concrete 110.3 IJAK 3
12L 0 122° 8996 ft 552 ft Concrete 110.1 IABW 0
12R 0 122° 11032 ft 552 ft Concrete 109.7 ILMR 3
24 0 242° 7595 ft 552 ft Concrete 110.3 ISTL 3
30L 0 302° 11032 ft 552 ft Concrete 110.55 IFXD 0
30R 0 302° 8996 ft 552 ft Concrete 111.3 ISJW 3

St. Louis Lambert International Airport, United States
Use only for reference purposes



Not for navigational purposes.